Raymondville, Missouri
Current Conditions -  °F | °C
As of 7:53 AM on Monday 22 Dec 2014 (Local Time) from KUNO Reporting Station
Light Rain Light Rain  
Wind Chill: 40°   Ceiling: 400
Heat Index: 45°   Visibility: 6mi
Dew Point: 42°   Wind: 9mph
Humidity: 90%   Direction: 170°S
Pressure: 29.71"   Gusts: 18mph
Location:  37.34°N, 91.83°W
Report Text: KUNO 221353Z AUTO 17008G16KT 6SM -RA BR OVC004 07/06 A2971 RMK AO2 RAB00 SLP065 P0002 T00720056 $
Loading
Personal Weather Stations






























Interactive Weather Map New forecast layout! Learn more

10-Day Weather Forecast

Advertisements
Track Severe Weather on mobile